Time;durP1;ratioP1;P1;durP2;ratioP2;P2;SDS_P1;SDS_P2;PMS_P1;PMS_P2;Temp;Humidity;BMP_temperature;BMP_pressure;BME280_temperature;BME280_humidity;BME280_pressure;Samples;Min_cycle;Max_cycle;Signal;HPM_P1;HPM_P2
2023/08/12 00:00:24;;;;;;;6.90;2.15;;;;;;;;;;5126001;28;20030;-59
2023/08/12 00:02:54;;;;;;;7.03;2.50;;;;;;;;;;5125847;28;20343;-56
2023/08/12 00:05:22;;;;;;;6.82;2.35;;;;;;;;;;5126046;28;20084;-57
2023/08/12 00:07:49;;;;;;;6.22;2.05;;;;;;;;;;5125713;28;20036;-52
2023/08/12 00:10:17;;;;;;;6.75;3.17;;;;;;;;;;5125370;28;20047;-53
2023/08/12 00:12:45;;;;;;;10.57;3.67;;;;;;;;;;5125451;28;20082;-57
2023/08/12 00:15:28;;;;;;;7.65;3.90;;;;;;;;;;5125681;28;20027;-54
2023/08/12 00:17:59;;;;;;;5.75;3.67;;;;;;;;;;5126323;28;20047;-58
2023/08/12 00:20:30;;;;;;;7.85;3.75;;;;;;;;;;5125925;28;20090;-56
2023/08/12 00:22:57;;;;;;;8.27;3.83;;;;;;;;;;5125292;28;20031;-57
2023/08/12 00:25:24;;;;;;;10.60;3.10;;;;;;;;;;5125560;28;20034;-57
2023/08/12 00:27:50;;;;;;;5.35;2.50;;;;;;;;;;5125392;28;20044;-57
2023/08/12 00:30:17;;;;;;;7.40;2.80;;;;;;;;;;5125463;28;20031;-55
2023/08/12 00:32:44;;;;;;;4.80;2.30;;;;;;;;;;5125187;28;20023;-51
2023/08/12 00:35:10;;;;;;;4.82;2.20;;;;;;;;;;5125078;28;20027;-54
2023/08/12 00:37:37;;;;;;;4.65;2.20;;;;;;;;;;5124885;28;20027;-56
2023/08/12 00:40:06;;;;;;;4.68;1.80;;;;;;;;;;5125039;28;20011;-54
2023/08/12 00:42:33;;;;;;;4.60;1.90;;;;;;;;;;5112751;28;20028;-48
2023/08/12 00:45:00;;;;;;;5.70;1.83;;;;;;;;;;5094543;28;20067;-59
2023/08/12 00:47:27;;;;;;;6.40;1.90;;;;;;;;;;5095931;28;20020;-58
2023/08/12 00:49:56;;;;;;;4.57;1.63;;;;;;;;;;5088771;28;20063;-58
2023/08/12 00:52:22;;;;;;;5.70;2.00;;;;;;;;;;5094729;28;20044;-57
2023/08/12 00:54:49;;;;;;;3.78;1.92;;;;;;;;;;5084397;28;20204;-54
2023/08/12 00:58:01;;;;;;;19.70;2.88;;;;;;;;;;5095192;28;20026;-57
2023/08/12 01:01:15;;;;;;;10.77;2.13;;;;;;;;;;5082734;28;20101;-56
2023/08/12 01:04:27;;;;;;;7.90;2.42;;;;;;;;;;5093440;28;20090;-54
2023/08/12 01:07:26;;;;;;;9.93;2.40;;;;;;;;;;5093778;28;20016;-53
2023/08/12 01:10:38;;;;;;;7.90;2.40;;;;;;;;;;5087531;28;20060;-53
2023/08/12 01:13:40;;;;;;;25.65;3.55;;;;;;;;;;5083915;28;20066;-52
2023/08/12 01:16:06;;;;;;;;;;;;;;;;;;5101671;28;20098;-51
2023/08/12 01:18:34;;;;;;;6.68;1.70;;;;;;;;;;5125124;28;19900;-58
2023/08/12 01:21:04;;;;;;;3.60;1.67;;;;;;;;;;5124662;28;20087;-58
2023/08/12 01:23:33;;;;;;;4.07;2.10;;;;;;;;;;5102183;28;20095;-60
2023/08/12 01:26:03;;;;;;;10.27;3.45;;;;;;;;;;5114442;28;20039;-57
2023/08/12 01:28:29;;;;;;;69.50;25.58;;;;;;;;;;5125386;28;20043;-54
2023/08/12 01:30:57;;;;;;;93.93;39.78;;;;;;;;;;5124585;28;20024;-58
2023/08/12 01:33:43;;;;;;;71.20;27.45;;;;;;;;;;5124969;28;20032;-54
2023/08/12 01:36:14;;;;;;;39.22;16.67;;;;;;;;;;5112096;28;20094;-57
2023/08/12 01:38:51;;;;;;;29.23;12.05;;;;;;;;;;5092265;28;20073;-61
2023/08/12 01:41:22;;;;;;;21.40;8.93;;;;;;;;;;5103953;28;20043;-58
2023/08/12 01:43:49;;;;;;;17.45;8.05;;;;;;;;;;5093574;28;20088;-55
2023/08/12 01:46:16;;;;;;;16.13;6.88;;;;;;;;;;5091025;28;20065;-59
2023/08/12 01:48:45;;;;;;;12.98;5.57;;;;;;;;;;5086436;28;20315;-58
2023/08/12 01:51:14;;;;;;;13.70;4.93;;;;;;;;;;5093064;28;20232;-58
2023/08/12 01:53:41;;;;;;;6.57;3.38;;;;;;;;;;5084851;28;20028;-59
2023/08/12 01:56:07;;;;;;;8.63;3.42;;;;;;;;;;5094906;28;20036;-57
2023/08/12 01:58:34;;;;;;;6.38;2.88;;;;;;;;;;5093711;28;20079;-58
2023/08/12 02:01:01;;;;;;;9.13;2.75;;;;;;;;;;5087926;28;20020;-55
2023/08/12 02:03:28;;;;;;;5.18;2.22;;;;;;;;;;5092934;28;20032;-58
2023/08/12 02:05:54;;;;;;;3.47;2.08;;;;;;;;;;5083492;28;20027;-58
2023/08/12 02:08:22;;;;;;;5.45;2.10;;;;;;;;;;5083609;28;20100;-57
2023/08/12 02:10:49;;;;;;;9.00;1.83;;;;;;;;;;5094387;28;20077;-54
2023/08/12 02:13:15;;;;;;;4.20;1.90;;;;;;;;;;5091145;28;20028;-62
2023/08/12 02:15:44;;;;;;;3.33;1.50;;;;;;;;;;5098993;28;20046;-58
2023/08/12 02:18:10;;;;;;;4.00;1.50;;;;;;;;;;5097026;28;20024;-55
2023/08/12 02:20:41;;;;;;;3.33;1.50;;;;;;;;;;5098807;28;20023;-59
2023/08/12 02:23:08;;;;;;;3.65;1.42;;;;;;;;;;5087634;28;20017;-56
2023/08/12 02:25:37;;;;;;;1.50;1.33;;;;;;;;;;5086982;28;20096;-58
2023/08/12 02:28:05;;;;;;;2.13;1.52;;;;;;;;;;5087864;28;20016;-57
2023/08/12 02:30:32;;;;;;;2.20;1.50;;;;;;;;;;5087691;28;20045;-58
2023/08/12 02:33:03;;;;;;;4.65;1.50;;;;;;;;;;5087496;28;20024;-57
2023/08/12 02:35:29;;;;;;;2.25;1.50;;;;;;;;;;5086867;28;20046;-57
2023/08/12 02:37:56;;;;;;;2.13;1.30;;;;;;;;;;5086126;28;20035;-57
2023/08/12 02:40:23;;;;;;;3.72;1.50;;;;;;;;;;5087720;28;20024;-56
2023/08/12 02:42:52;;;;;;;4.22;1.50;;;;;;;;;;5108763;28;20053;-53
2023/08/12 02:45:19;;;;;;;4.55;1.63;;;;;;;;;;5094400;28;20123;-57
2023/08/12 02:47:45;;;;;;;1.58;1.20;;;;;;;;;;5081336;28;20060;-56
2023/08/12 02:50:12;;;;;;;4.60;1.30;;;;;;;;;;5107460;28;20200;-54
2023/08/12 02:52:39;;;;;;;3.05;1.27;;;;;;;;;;5107181;28;20040;-56
2023/08/12 02:55:06;;;;;;;2.88;1.30;;;;;;;;;;5107439;28;20074;-56
2023/08/12 02:57:32;;;;;;;3.10;1.40;;;;;;;;;;5107046;28;20076;-54
2023/08/12 02:59:59;;;;;;;3.58;1.48;;;;;;;;;;5107013;28;20028;-54
2023/08/12 03:02:26;;;;;;;7.22;1.38;;;;;;;;;;5106892;28;20024;-57
2023/08/12 03:04:54;;;;;;;1.52;1.30;;;;;;;;;;5100751;28;20084;-57
2023/08/12 03:07:20;;;;;;;3.13;1.30;;;;;;;;;;5089301;28;20036;-57
2023/08/12 03:09:47;;;;;;;2.10;1.40;;;;;;;;;;5097284;28;20032;-50
2023/08/12 03:12:14;;;;;;;3.58;1.60;;;;;;;;;;5086541;28;20027;-55
2023/08/12 03:14:40;;;;;;;2.42;1.23;;;;;;;;;;5091782;28;20032;-55
2023/08/12 03:17:07;;;;;;;3.92;1.70;;;;;;;;;;5106488;28;20320;-55
2023/08/12 03:19:33;;;;;;;3.00;1.48;;;;;;;;;;5106352;28;20124;-64
2023/08/12 03:22:00;;;;;;;1.77;1.27;;;;;;;;;;5106386;28;20051;-56
2023/08/12 03:24:27;;;;;;;2.65;1.40;;;;;;;;;;5106161;28;20047;-56
2023/08/12 03:26:53;;;;;;;3.75;1.42;;;;;;;;;;5106325;28;20308;-56
2023/08/12 03:29:20;;;;;;;3.47;1.15;;;;;;;;;;5102188;28;20032;-55
2023/08/12 03:31:47;;;;;;;2.78;1.33;;;;;;;;;;5095057;28;20024;-55
2023/08/12 03:34:16;;;;;;;3.22;1.75;;;;;;;;;;5096902;28;20027;-55
2023/08/12 03:36:45;;;;;;;2.60;1.20;;;;;;;;;;5086098;28;20308;-57
2023/08/12 03:39:15;;;;;;;2.08;1.20;;;;;;;;;;5086104;28;20092;-56
2023/08/12 03:41:44;;;;;;;3.53;1.38;;;;;;;;;;5086353;28;20014;-58
2023/08/12 03:44:10;;;;;;;2.63;1.20;;;;;;;;;;5085710;28;20365;-56
2023/08/12 03:46:37;;;;;;;2.63;1.40;;;;;;;;;;5116418;28;20050;-55
2023/08/12 03:49:04;;;;;;;2.85;1.40;;;;;;;;;;5126346;28;20200;-59
2023/08/12 03:51:30;;;;;;;3.25;1.48;;;;;;;;;;5103553;28;20032;-58
2023/08/12 03:53:57;;;;;;;2.28;1.30;;;;;;;;;;5088973;28;20020;-58
2023/08/12 03:56:24;;;;;;;8.18;1.73;;;;;;;;;;5072739;28;20024;-55
2023/08/12 03:58:50;;;;;;;9.13;2.60;;;;;;;;;;5105435;28;20219;-52
2023/08/12 04:01:17;;;;;;;4.22;2.40;;;;;;;;;;5105109;28;20178;-54
2023/08/12 04:03:44;;;;;;;5.57;2.40;;;;;;;;;;5097747;28;20031;-60
2023/08/12 04:06:10;;;;;;;8.27;2.30;;;;;;;;;;5085171;28;20033;-56
2023/08/12 04:08:37;;;;;;;8.07;1.90;;;;;;;;;;5094149;28;20104;-57
2023/08/12 04:11:04;;;;;;;4.15;1.90;;;;;;;;;;5099277;28;20028;-56
2023/08/12 04:13:31;;;;;;;3.38;2.17;;;;;;;;;;5096169;28;20036;-54
2023/08/12 04:15:57;;;;;;;3.05;1.98;;;;;;;;;;5098799;28;20027;-56
2023/08/12 04:18:24;;;;;;;4.10;2.20;;;;;;;;;;5095965;28;20114;-48
2023/08/12 04:20:51;;;;;;;3.63;1.92;;;;;;;;;;5095635;28;20032;-56
2023/08/12 04:23:17;;;;;;;4.25;1.75;;;;;;;;;;5117263;28;20024;-54
2023/08/12 04:25:45;;;;;;;3.67;1.80;;;;;;;;;;5118463;28;20020;-57
2023/08/12 04:28:12;;;;;;;4.13;1.80;;;;;;;;;;5106557;28;20329;-53
2023/08/12 04:30:45;;;;;;;6.47;2.20;;;;;;;;;;5098710;28;20388;-57
2023/08/12 04:33:13;;;;;;;2.72;1.65;;;;;;;;;;5096690;28;20045;-57
2023/08/12 04:35:40;;;;;;;3.10;1.70;;;;;;;;;;5104666;28;20052;-60
2023/08/12 04:38:06;;;;;;;4.03;2.10;;;;;;;;;;5104877;28;20019;-59
2023/08/12 04:40:33;;;;;;;2.53;1.73;;;;;;;;;;5104333;28;20031;-58
2023/08/12 04:43:01;;;;;;;4.57;1.95;;;;;;;;;;5105087;28;20364;-57
2023/08/12 04:45:28;;;;;;;2.40;1.73;;;;;;;;;;5104734;28;20059;-60
2023/08/12 04:47:54;;;;;;;2.72;1.92;;;;;;;;;;5105064;28;20070;-55
2023/08/12 04:50:21;;;;;;;4.28;2.10;;;;;;;;;;5104695;28;20035;-56
2023/08/12 04:52:48;;;;;;;3.50;1.95;;;;;;;;;;5105045;28;20053;-55
2023/08/12 04:55:14;;;;;;;10.95;2.70;;;;;;;;;;5104675;28;20039;-57
2023/08/12 04:57:41;;;;;;;14.80;3.67;;;;;;;;;;5104765;28;20034;-52
2023/08/12 05:00:08;;;;;;;14.70;3.28;;;;;;;;;;5104587;28;20062;-59
2023/08/12 05:02:35;;;;;;;6.45;3.20;;;;;;;;;;5104834;28;20204;-57
2023/08/12 05:05:02;;;;;;;8.48;3.15;;;;;;;;;;5104254;28;20147;-56
2023/08/12 05:07:28;;;;;;;10.35;3.28;;;;;;;;;;5104750;28;20030;-56
2023/08/12 05:09:55;;;;;;;17.80;3.83;;;;;;;;;;5104263;28;20045;-57
2023/08/12 05:12:21;;;;;;;11.15;3.20;;;;;;;;;;5104509;28;20087;-51
2023/08/12 05:14:48;;;;;;;17.60;3.88;;;;;;;;;;5098796;28;20201;-55
2023/08/12 05:17:15;;;;;;;10.20;3.25;;;;;;;;;;5093273;28;20024;-54
2023/08/12 05:19:41;;;;;;;10.90;2.80;;;;;;;;;;5083792;28;20133;-51
2023/08/12 05:22:08;;;;;;;19.88;3.35;;;;;;;;;;5083959;28;20020;-55
2023/08/12 05:24:35;;;;;;;29.73;4.68;;;;;;;;;;5083900;28;20220;-53
2023/08/12 05:27:01;;;;;;;69.47;7.75;;;;;;;;;;5083503;28;20029;-54
2023/08/12 05:29:28;;;;;;;60.90;7.95;;;;;;;;;;5083928;28;20025;-53
2023/08/12 05:31:55;;;;;;;71.07;6.68;;;;;;;;;;5084135;28;20060;-58
2023/08/12 05:34:21;;;;;;;50.20;5.88;;;;;;;;;;5083627;28;20032;-61
2023/08/12 05:36:48;;;;;;;29.90;5.35;;;;;;;;;;5083899;28;20016;-54
2023/08/12 05:39:18;;;;;;;23.77;4.50;;;;;;;;;;5083691;28;20036;-51
2023/08/12 05:41:45;;;;;;;24.88;4.20;;;;;;;;;;5082399;28;20217;-53
2023/08/12 05:44:11;;;;;;;13.32;3.53;;;;;;;;;;5083560;28;20031;-55
2023/08/12 05:46:38;;;;;;;19.85;3.90;;;;;;;;;;5083949;28;20056;-58
2023/08/12 05:49:05;;;;;;;16.08;3.47;;;;;;;;;;5083638;28;20052;-58
2023/08/12 05:51:31;;;;;;;10.60;3.58;;;;;;;;;;5083926;28;20020;-56
2023/08/12 05:53:58;;;;;;;10.80;2.70;;;;;;;;;;5087522;28;20074;-57
2023/08/12 05:56:25;;;;;;;16.00;2.80;;;;;;;;;;5090873;28;20027;-57
2023/08/12 05:58:51;;;;;;;13.32;2.83;;;;;;;;;;5107464;28;20020;-56
2023/08/12 06:01:18;;;;;;;10.88;3.22;;;;;;;;;;5107819;28;20036;-58
2023/08/12 06:03:45;;;;;;;20.00;3.13;;;;;;;;;;5107700;28;20051;-54
2023/08/12 06:06:11;;;;;;;9.10;2.90;;;;;;;;;;5107671;28;20016;-56
2023/08/12 06:08:38;;;;;;;10.75;2.85;;;;;;;;;;5107863;28;20035;-54
2023/08/12 06:11:05;;;;;;;6.28;2.78;;;;;;;;;;5107573;28;20027;-60
2023/08/12 06:13:31;;;;;;;11.52;3.10;;;;;;;;;;5107424;28;20024;-55
2023/08/12 06:15:58;;;;;;;7.50;2.95;;;;;;;;;;5107461;28;20251;-57
2023/08/12 06:18:25;;;;;;;7.72;2.40;;;;;;;;;;5107568;28;20032;-57
2023/08/12 06:20:51;;;;;;;8.93;2.50;;;;;;;;;;5107273;28;20358;-52
2023/08/12 06:23:18;;;;;;;5.85;2.00;;;;;;;;;;5107330;28;20059;-53
2023/08/12 06:25:45;;;;;;;5.07;2.30;;;;;;;;;;5107335;28;20239;-54
2023/08/12 06:28:11;;;;;;;3.75;2.20;;;;;;;;;;5106759;28;20036;-56
2023/08/12 06:30:38;;;;;;;6.43;2.58;;;;;;;;;;5107207;28;20059;-55
2023/08/12 06:33:05;;;;;;;4.43;2.50;;;;;;;;;;5107629;28;20058;-56
2023/08/12 06:35:31;;;;;;;6.05;2.08;;;;;;;;;;5106981;28;20028;-56
2023/08/12 06:37:58;;;;;;;9.65;2.10;;;;;;;;;;5107639;28;20032;-54
2023/08/12 06:40:25;;;;;;;4.57;2.20;;;;;;;;;;5107154;28;20056;-57
2023/08/12 06:42:52;;;;;;;4.57;1.70;;;;;;;;;;5106813;28;20016;-57
2023/08/12 06:45:19;;;;;;;7.55;1.98;;;;;;;;;;5106911;28;20048;-55
2023/08/12 06:47:46;;;;;;;3.53;1.88;;;;;;;;;;5107481;28;20054;-58
2023/08/12 06:50:12;;;;;;;6.00;1.90;;;;;;;;;;5106657;28;20028;-54
2023/08/12 06:52:39;;;;;;;6.47;2.22;;;;;;;;;;5107331;28;20043;-54
2023/08/12 06:55:06;;;;;;;5.97;1.73;;;;;;;;;;5106788;28;20089;-55
2023/08/12 06:57:32;;;;;;;5.15;2.17;;;;;;;;;;5106959;28;20016;-57
2023/08/12 06:59:59;;;;;;;4.07;1.90;;;;;;;;;;5106424;28;20221;-53
2023/08/12 07:02:26;;;;;;;5.13;1.90;;;;;;;;;;5106634;28;20053;-55
2023/08/12 07:04:52;;;;;;;5.25;2.05;;;;;;;;;;5106281;28;20054;-55
2023/08/12 07:07:19;;;;;;;3.75;2.17;;;;;;;;;;5106898;28;20024;-52
2023/08/12 07:09:46;;;;;;;3.67;1.90;;;;;;;;;;5106529;28;20036;-55
2023/08/12 07:12:12;;;;;;;7.20;2.10;;;;;;;;;;5106408;28;20024;-53
2023/08/12 07:14:39;;;;;;;4.40;2.10;;;;;;;;;;5106217;28;20095;-55
2023/08/12 07:17:06;;;;;;;7.30;2.28;;;;;;;;;;5106572;28;20050;-52
2023/08/12 07:19:32;;;;;;;6.60;2.10;;;;;;;;;;5106390;28;20020;-55
2023/08/12 07:21:59;;;;;;;2.60;1.88;;;;;;;;;;5106399;28;20031;-55
2023/08/12 07:24:26;;;;;;;5.88;2.35;;;;;;;;;;5106317;28;20091;-54
2023/08/12 07:26:52;;;;;;;4.47;2.20;;;;;;;;;;5106392;28;20027;-53
2023/08/12 07:29:19;;;;;;;6.95;2.00;;;;;;;;;;5105791;28;20259;-56
2023/08/12 07:31:46;;;;;;;3.50;2.20;;;;;;;;;;5105999;28;20023;-53
2023/08/12 07:34:13;;;;;;;3.75;1.83;;;;;;;;;;5105795;28;20339;-54
2023/08/12 07:36:40;;;;;;;4.82;2.08;;;;;;;;;;5106205;28;20231;-53
2023/08/12 07:39:07;;;;;;;5.05;2.28;;;;;;;;;;5105836;28;20329;-51
2023/08/12 07:41:34;;;;;;;5.18;2.08;;;;;;;;;;5105895;28;20019;-54
2023/08/12 07:44:00;;;;;;;5.05;2.22;;;;;;;;;;5105619;28;20028;-51
2023/08/12 07:46:29;;;;;;;3.97;2.10;;;;;;;;;;5105645;28;20335;-54
2023/08/12 07:48:56;;;;;;;3.97;2.00;;;;;;;;;;5105643;28;20047;-52
2023/08/12 07:51:23;;;;;;;4.20;2.20;;;;;;;;;;5105610;28;20347;-56
2023/08/12 07:53:50;;;;;;;5.55;2.33;;;;;;;;;;5105700;28;20032;-56
2023/08/12 07:56:16;;;;;;;5.22;2.17;;;;;;;;;;5105546;28;20015;-55
2023/08/12 07:58:45;;;;;;;5.72;2.25;;;;;;;;;;5105418;28;20073;-54
2023/08/12 08:01:12;;;;;;;6.85;2.22;;;;;;;;;;5105487;28;20024;-52
2023/08/12 08:03:39;;;;;;;2.67;2.08;;;;;;;;;;5105217;28;20027;-55
2023/08/12 08:06:06;;;;;;;3.83;2.20;;;;;;;;;;5105265;28;20039;-54
2023/08/12 08:08:32;;;;;;;3.75;2.10;;;;;;;;;;5105366;28;20059;-54
2023/08/12 08:10:59;;;;;;;3.85;2.20;;;;;;;;;;5105348;28;20020;-56
2023/08/12 08:13:26;;;;;;;3.53;2.50;;;;;;;;;;5105138;28;20081;-53
2023/08/12 08:15:52;;;;;;;2.97;2.10;;;;;;;;;;5104262;28;20035;-58
2023/08/12 08:18:19;;;;;;;4.95;2.30;;;;;;;;;;5105078;28;20020;-54
2023/08/12 08:20:46;;;;;;;3.58;1.92;;;;;;;;;;5104949;28;20028;-54
2023/08/12 08:23:12;;;;;;;8.07;2.30;;;;;;;;;;5105184;28;20035;-58
2023/08/12 08:25:39;;;;;;;5.80;2.40;;;;;;;;;;5104996;28;20024;-55
2023/08/12 08:28:08;;;;;;;6.15;2.20;;;;;;;;;;5104946;28;20035;-53
2023/08/12 08:30:34;;;;;;;5.97;2.45;;;;;;;;;;5104875;28;20028;-56
2023/08/12 08:33:01;;;;;;;4.60;2.20;;;;;;;;;;5105234;28;20023;-56
2023/08/12 08:35:28;;;;;;;3.88;2.50;;;;;;;;;;5104604;28;20352;-53
2023/08/12 08:37:54;;;;;;;3.55;2.20;;;;;;;;;;5105175;28;20204;-54
2023/08/12 08:40:21;;;;;;;4.45;2.30;;;;;;;;;;5104696;28;20366;-57
2023/08/12 08:42:49;;;;;;;5.55;2.60;;;;;;;;;;5104982;28;20035;-58
2023/08/12 08:45:17;;;;;;;4.95;2.35;;;;;;;;;;5104587;28;20375;-55
2023/08/12 08:47:43;;;;;;;3.63;2.35;;;;;;;;;;5105114;28;20027;-53
2023/08/12 08:50:11;;;;;;;4.32;2.38;;;;;;;;;;5104345;28;20047;-52
2023/08/12 08:52:38;;;;;;;4.50;2.25;;;;;;;;;;5105109;28;20027;-56
2023/08/12 08:55:05;;;;;;;5.13;2.72;;;;;;;;;;5104549;28;20034;-57
2023/08/12 08:57:32;;;;;;;4.03;2.30;;;;;;;;;;5104351;28;20383;-55
2023/08/12 08:59:59;;;;;;;3.97;2.65;;;;;;;;;;5104359;28;20240;-58
2023/08/12 09:02:26;;;;;;;5.25;2.70;;;;;;;;;;5104897;28;20119;-57
2023/08/12 09:04:53;;;;;;;6.25;2.97;;;;;;;;;;5104058;28;20036;-55
2023/08/12 09:07:20;;;;;;;4.38;2.72;;;;;;;;;;5104610;28;20372;-53
2023/08/12 09:09:48;;;;;;;5.63;2.85;;;;;;;;;;5104210;28;20079;-55
2023/08/12 09:12:15;;;;;;;3.38;2.25;;;;;;;;;;5104426;28;20330;-56
2023/08/12 09:14:45;;;;;;;4.30;2.50;;;;;;;;;;5104328;28;20050;-55
2023/08/12 09:17:12;;;;;;;3.70;2.20;;;;;;;;;;5104499;28;20021;-56
2023/08/12 09:19:39;;;;;;;6.03;2.55;;;;;;;;;;5104076;28;20036;-57
2023/08/12 09:22:06;;;;;;;14.00;3.13;;;;;;;;;;5104337;28;20285;-56
2023/08/12 09:24:32;;;;;;;3.55;2.35;;;;;;;;;;5104082;28;20020;-57
2023/08/12 09:26:59;;;;;;;6.15;2.80;;;;;;;;;;5104106;28;20032;-54
2023/08/12 09:29:35;;;;;;;4.70;2.53;;;;;;;;;;5103926;28;20070;-55
2023/08/12 09:32:18;;;;;;;3.85;2.63;;;;;;;;;;5104863;28;20038;-52
2023/08/12 09:34:48;;;;;;;5.30;2.60;;;;;;;;;;5103983;28;20027;-53
2023/08/12 09:37:16;;;;;;;8.30;3.20;;;;;;;;;;5104086;28;20068;-53
2023/08/12 09:39:43;;;;;;;3.00;2.60;;;;;;;;;;5103853;28;20089;-56
2023/08/12 09:42:10;;;;;;;7.22;2.60;;;;;;;;;;5101931;28;20024;-55
2023/08/12 09:44:37;;;;;;;7.47;2.67;;;;;;;;;;5093542;28;20341;-57
2023/08/12 09:47:04;;;;;;;3.83;2.60;;;;;;;;;;5083832;28;20331;-56
2023/08/12 09:49:30;;;;;;;6.20;2.53;;;;;;;;;;5083781;28;20024;-56
2023/08/12 09:51:57;;;;;;;4.28;2.80;;;;;;;;;;5083834;28;20212;-51
2023/08/12 09:54:27;;;;;;;4.72;2.50;;;;;;;;;;5083485;28;20047;-57
2023/08/12 09:56:56;;;;;;;3.95;2.65;;;;;;;;;;5083958;28;20040;-54
2023/08/12 09:59:23;;;;;;;3.35;2.47;;;;;;;;;;5083824;28;20060;-57
2023/08/12 10:01:50;;;;;;;4.88;2.28;;;;;;;;;;5083659;28;20043;-56
2023/08/12 10:04:18;;;;;;;5.68;2.35;;;;;;;;;;5083638;28;20028;-58
2023/08/12 10:06:46;;;;;;;3.45;2.58;;;;;;;;;;5083605;28;20074;-55
2023/08/12 10:09:13;;;;;;;6.07;3.03;;;;;;;;;;5083286;28;20190;-55
2023/08/12 10:11:39;;;;;;;6.35;3.25;;;;;;;;;;5083935;28;20012;-52
2023/08/12 10:14:07;;;;;;;6.57;3.22;;;;;;;;;;5083534;28;20092;-55
2023/08/12 10:16:34;;;;;;;5.50;3.00;;;;;;;;;;5083676;28;20020;-57
2023/08/12 10:19:01;;;;;;;5.68;3.15;;;;;;;;;;5083314;28;20050;-50
2023/08/12 10:21:28;;;;;;;4.65;2.90;;;;;;;;;;5109200;28;20023;-55
2023/08/12 10:23:58;;;;;;;5.25;3.03;;;;;;;;;;5100536;28;20024;-52
2023/08/12 10:26:25;;;;;;;4.50;3.17;;;;;;;;;;5120999;28;20026;-54
2023/08/12 10:28:52;;;;;;;6.80;3.20;;;;;;;;;;5124066;28;20028;-48
2023/08/12 10:31:20;;;;;;;8.77;3.42;;;;;;;;;;5123794;28;20113;-59
2023/08/12 10:33:49;;;;;;;10.00;3.85;;;;;;;;;;5123812;28;20054;-54
2023/08/12 10:36:19;;;;;;;8.32;3.50;;;;;;;;;;5123755;28;20042;-52
2023/08/12 10:38:45;;;;;;;6.18;3.40;;;;;;;;;;5125380;28;20076;-54
2023/08/12 10:41:16;;;;;;;9.00;3.13;;;;;;;;;;5127080;28;20293;-55
2023/08/12 10:43:54;;;;;;;8.15;3.30;;;;;;;;;;5104840;28;20031;-56
2023/08/12 10:46:32;;;;;;;5.32;2.90;;;;;;;;;;5118729;28;20039;-56
2023/08/12 10:49:08;;;;;;;4.80;3.05;;;;;;;;;;5124655;28;20031;-56
2023/08/12 10:51:42;;;;;;;9.02;3.17;;;;;;;;;;5086621;28;20032;-59
2023/08/12 10:54:11;;;;;;;7.88;3.28;;;;;;;;;;5095298;28;20036;-56
2023/08/12 10:57:05;;;;;;;7.10;3.30;;;;;;;;;;5107871;28;20223;-56
2023/08/12 10:59:56;;;;;;;5.70;3.15;;;;;;;;;;5106022;28;20111;-49
2023/08/12 11:02:23;;;;;;;7.63;3.67;;;;;;;;;;5080392;28;20040;-56
2023/08/12 11:04:51;;;;;;;6.95;3.60;;;;;;;;;;5086011;28;20040;-56
2023/08/12 11:07:41;;;;;;;8.68;3.85;;;;;;;;;;5087044;28;20107;-57
2023/08/12 11:10:27;;;;;;;8.02;3.85;;;;;;;;;;5077645;28;20067;-57
2023/08/12 11:12:54;;;;;;;8.52;4.00;;;;;;;;;;5095850;28;20078;-59
2023/08/12 11:15:32;;;;;;;7.90;3.92;;;;;;;;;;5115556;28;20233;-59
2023/08/12 11:17:59;;;;;;;10.18;3.70;;;;;;;;;;5089063;28;20016;-57
2023/08/12 11:20:29;;;;;;;7.65;4.05;;;;;;;;;;5112851;28;20092;-57
2023/08/12 11:22:58;;;;;;;10.80;4.70;;;;;;;;;;5113251;28;20019;-56
2023/08/12 11:25:26;;;;;;;8.35;3.85;;;;;;;;;;5089058;28;20055;-56
2023/08/12 11:27:53;;;;;;;11.63;4.03;;;;;;;;;;5091654;28;20047;-55
2023/08/12 11:30:21;;;;;;;9.18;4.50;;;;;;;;;;5093356;28;20052;-56
2023/08/12 11:32:52;;;;;;;7.22;4.82;;;;;;;;;;5095915;28;20301;-57
2023/08/12 11:35:19;;;;;;;14.65;4.80;;;;;;;;;;5095033;28;20035;-57
2023/08/12 11:37:48;;;;;;;9.50;4.50;;;;;;;;;;5089098;28;20062;-49
2023/08/12 11:40:16;;;;;;;9.50;4.60;;;;;;;;;;5108245;28;20024;-57
2023/08/12 11:42:44;;;;;;;9.13;4.47;;;;;;;;;;5119132;28;20065;-53
2023/08/12 11:45:11;;;;;;;7.30;4.00;;;;;;;;;;5111853;28;20058;-56
2023/08/12 11:47:38;;;;;;;12.38;4.47;;;;;;;;;;5094181;28;20032;-55
2023/08/12 11:50:06;;;;;;;12.38;4.60;;;;;;;;;;5122892;28;20267;-49
2023/08/12 11:52:33;;;;;;;8.55;3.65;;;;;;;;;;5126542;28;20035;-56
2023/08/12 11:55:00;;;;;;;7.88;3.33;;;;;;;;;;5118043;28;20020;-57
2023/08/12 11:57:29;;;;;;;8.60;3.83;;;;;;;;;;5119118;28;20035;-57
2023/08/12 12:00:04;;;;;;;9.68;3.67;;;;;;;;;;5102968;28;20025;-56
2023/08/12 12:02:30;;;;;;;7.15;3.72;;;;;;;;;;5096621;28;20173;-56
2023/08/12 12:04:57;;;;;;;6.18;3.92;;;;;;;;;;5123580;28;20257;-59
2023/08/12 12:07:27;;;;;;;16.75;4.57;;;;;;;;;;5102930;28;20020;-55
2023/08/12 12:09:58;;;;;;;10.02;4.18;;;;;;;;;;5124445;28;20028;-54
2023/08/12 12:12:25;;;;;;;6.55;3.42;;;;;;;;;;5105620;28;20028;-58
2023/08/12 12:14:55;;;;;;;5.38;3.83;;;;;;;;;;5109166;28;20048;-59
2023/08/12 12:17:23;;;;;;;9.50;3.53;;;;;;;;;;5126119;28;20249;-54
2023/08/12 12:19:56;;;;;;;5.80;4.20;;;;;;;;;;5126068;28;20027;-58
2023/08/12 12:22:33;;;;;;;7.18;3.97;;;;;;;;;;5126247;28;20032;-58
2023/08/12 12:25:07;;;;;;;6.22;4.10;;;;;;;;;;5125913;28;20319;-59
2023/08/12 12:27:33;;;;;;;13.13;4.18;;;;;;;;;;5126183;28;20023;-54
2023/08/12 12:30:01;;;;;;;8.80;3.92;;;;;;;;;;5125752;28;20035;-57
2023/08/12 12:32:27;;;;;;;20.67;5.00;;;;;;;;;;5109537;28;20031;-53
2023/08/12 12:34:54;;;;;;;11.43;4.05;;;;;;;;;;5097928;28;20105;-54
2023/08/12 12:37:21;;;;;;;8.70;3.47;;;;;;;;;;5111909;28;20091;-56
2023/08/12 12:39:48;;;;;;;11.93;3.88;;;;;;;;;;5125450;28;20015;-55
2023/08/12 12:42:14;;;;;;;9.25;3.60;;;;;;;;;;5125969;28;20024;-54
2023/08/12 12:44:44;;;;;;;9.23;3.60;;;;;;;;;;5125550;28;20282;-57
2023/08/12 12:47:12;;;;;;;6.57;3.30;;;;;;;;;;5125820;28;20300;-62
2023/08/12 12:49:41;;;;;;;6.00;3.75;;;;;;;;;;5125603;28;20040;-55
2023/08/12 12:52:08;;;;;;;6.93;3.50;;;;;;;;;;5126193;28;20034;-56
2023/08/12 12:54:35;;;;;;;9.95;3.95;;;;;;;;;;5107053;28;20316;-55
2023/08/12 12:57:01;;;;;;;8.15;3.60;;;;;;;;;;5125922;28;20295;-54
2023/08/12 12:59:28;;;;;;;8.52;3.60;;;;;;;;;;5125350;28;20035;-50
2023/08/12 13:01:55;;;;;;;10.63;3.85;;;;;;;;;;5124926;28;20031;-58
2023/08/12 13:04:22;;;;;;;10.27;3.53;;;;;;;;;;5125281;28;20214;-56
2023/08/12 13:06:49;;;;;;;8.45;3.55;;;;;;;;;;5125564;28;20134;-55
2023/08/12 13:09:31;;;;;;;8.50;3.88;;;;;;;;;;5124404;28;20028;-58
2023/08/12 13:12:01;;;;;;;5.55;3.80;;;;;;;;;;5094164;28;20092;-58
2023/08/12 13:14:30;;;;;;;9.18;4.05;;;;;;;;;;5104576;28;20029;-54
2023/08/12 13:16:56;;;;;;;11.68;3.95;;;;;;;;;;5096620;28;20089;-54
2023/08/12 13:19:23;;;;;;;9.70;3.85;;;;;;;;;;5088883;28;20213;-57
2023/08/12 13:21:50;;;;;;;5.55;3.38;;;;;;;;;;5084466;28;20095;-59
2023/08/12 13:24:16;;;;;;;6.72;3.40;;;;;;;;;;5084273;28;20024;-59
2023/08/12 13:26:43;;;;;;;6.60;3.53;;;;;;;;;;5084580;28;20205;-52
2023/08/12 13:29:10;;;;;;;6.40;3.80;;;;;;;;;;5083967;28;20091;-54
2023/08/12 13:31:36;;;;;;;6.93;3.53;;;;;;;;;;5084253;28;20067;-55
2023/08/12 13:34:03;;;;;;;4.60;3.60;;;;;;;;;;5083911;28;20020;-55
2023/08/12 13:36:30;;;;;;;5.75;3.58;;;;;;;;;;5083821;28;20200;-56
2023/08/12 13:38:57;;;;;;;4.75;2.90;;;;;;;;;;5084427;28;20029;-53
2023/08/12 13:41:23;;;;;;;7.13;3.67;;;;;;;;;;5084252;28;20018;-56
2023/08/12 13:43:56;;;;;;;6.72;3.20;;;;;;;;;;5083814;28;20375;-56
2023/08/12 13:46:26;;;;;;;7.45;3.88;;;;;;;;;;5083754;28;20057;-55
2023/08/12 13:48:53;;;;;;;8.27;3.08;;;;;;;;;;5084024;28;20033;-56
2023/08/12 13:51:20;;;;;;;5.30;3.20;;;;;;;;;;5084133;28;20024;-56
2023/08/12 13:53:47;;;;;;;4.93;3.35;;;;;;;;;;5084078;28;20044;-57
2023/08/12 13:56:14;;;;;;;9.20;3.67;;;;;;;;;;5083942;28;20027;-56
2023/08/12 13:58:41;;;;;;;6.18;3.83;;;;;;;;;;5082495;28;20056;-59
2023/08/12 14:01:08;;;;;;;4.20;3.55;;;;;;;;;;5083937;28;20012;-57
2023/08/12 14:03:46;;;;;;;5.22;3.83;;;;;;;;;;5084066;28;20020;-57
2023/08/12 14:06:13;;;;;;;11.02;3.20;;;;;;;;;;5083626;28;20051;-58
2023/08/12 14:08:39;;;;;;;6.15;3.15;;;;;;;;;;5088661;28;20029;-59
2023/08/12 14:11:06;;;;;;;13.80;4.32;;;;;;;;;;5098424;28;20039;-57
2023/08/12 14:13:33;;;;;;;12.75;4.18;;;;;;;;;;5105129;28;20020;-57
2023/08/12 14:16:00;;;;;;;7.72;3.40;;;;;;;;;;5108853;28;20024;-56
2023/08/12 14:18:27;;;;;;;11.63;3.58;;;;;;;;;;5100065;28;20187;-56
2023/08/12 14:20:54;;;;;;;14.25;3.72;;;;;;;;;;5096176;28;20074;-51
2023/08/12 14:23:28;;;;;;;6.78;3.03;;;;;;;;;;5087551;28;20109;-55
2023/08/12 14:25:57;;;;;;;6.05;3.40;;;;;;;;;;5100067;28;20033;-54
2023/08/12 14:28:24;;;;;;;7.05;3.42;;;;;;;;;;5099105;28;20024;-55
2023/08/12 14:30:51;;;;;;;6.25;3.03;;;;;;;;;;5108531;28;20040;-57
2023/08/12 14:33:17;;;;;;;7.65;3.50;;;;;;;;;;5107352;28;20035;-56
2023/08/12 14:35:47;;;;;;;3.83;3.10;;;;;;;;;;5107734;28;20020;-56
2023/08/12 14:38:14;;;;;;;4.60;3.13;;;;;;;;;;5089383;28;20091;-54
2023/08/12 14:40:41;;;;;;;3.65;3.33;;;;;;;;;;5103148;28;20020;-54
2023/08/12 14:43:07;;;;;;;3.75;3.00;;;;;;;;;;5110047;28;20015;-55
2023/08/12 14:45:36;;;;;;;6.00;3.20;;;;;;;;;;5127702;28;20048;-61
2023/08/12 14:48:07;;;;;;;12.40;3.50;;;;;;;;;;5127751;28;20181;-57